sensor_id;sensor_type;location;lat;lon;timestamp;P1;durP1;ratioP1;P2;durP2;ratioP2
17921;SDS011;9086;50.966;3.144;2023-05-10T00:00:33;59.43;;;56.03;;
17921;SDS011;9086;50.966;3.144;2023-05-10T00:02:59;56.43;;;53.17;;
17921;SDS011;9086;50.966;3.144;2023-05-10T00:05:25;55.90;;;52.67;;
17921;SDS011;9086;50.966;3.144;2023-05-10T00:07:51;59.37;;;55.97;;
17921;SDS011;9086;50.966;3.144;2023-05-10T00:10:17;64.10;;;60.47;;
17921;SDS011;9086;50.966;3.144;2023-05-10T00:12:43;69.07;;;65.23;;
17921;SDS011;9086;50.966;3.144;2023-05-10T00:15:10;73.50;;;69.50;;
17921;SDS011;9086;50.966;3.144;2023-05-10T00:17:36;78.67;;;74.60;;
17921;SDS011;9086;50.966;3.144;2023-05-10T00:20:02;75.67;;;71.50;;
17921;SDS011;9086;50.966;3.144;2023-05-10T00:22:29;84.30;;;80.00;;
17921;SDS011;9086;50.966;3.144;2023-05-10T00:24:56;89.43;;;84.90;;
17921;SDS011;9086;50.966;3.144;2023-05-10T00:27:22;88.63;;;84.23;;
17921;SDS011;9086;50.966;3.144;2023-05-10T00:29:48;82.23;;;78.03;;
17921;SDS011;9086;50.966;3.144;2023-05-10T00:32:14;99.80;;;94.83;;
17921;SDS011;9086;50.966;3.144;2023-05-10T00:34:41;96.60;;;91.73;;
17921;SDS011;9086;50.966;3.144;2023-05-10T00:37:07;107.33;;;102.13;;
17921;SDS011;9086;50.966;3.144;2023-05-10T00:39:33;100.23;;;94.73;;
17921;SDS011;9086;50.966;3.144;2023-05-10T00:41:59;112.90;;;107.60;;
17921;SDS011;9086;50.966;3.144;2023-05-10T00:44:25;121.70;;;115.73;;
17921;SDS011;9086;50.966;3.144;2023-05-10T00:46:53;120.90;;;114.80;;
17921;SDS011;9086;50.966;3.144;2023-05-10T00:49:19;119.40;;;113.70;;
17921;SDS011;9086;50.966;3.144;2023-05-10T00:51:45;125.37;;;119.33;;
17921;SDS011;9086;50.966;3.144;2023-05-10T00:54:12;114.80;;;109.13;;
17921;SDS011;9086;50.966;3.144;2023-05-10T00:56:40;126.17;;;120.30;;
17921;SDS011;9086;50.966;3.144;2023-05-10T00:59:07;127.33;;;121.43;;
17921;SDS011;9086;50.966;3.144;2023-05-10T01:01:34;125.73;;;119.53;;
17921;SDS011;9086;50.966;3.144;2023-05-10T01:04:01;120.20;;;114.70;;
17921;SDS011;9086;50.966;3.144;2023-05-10T01:06:28;126.80;;;120.60;;
17921;SDS011;9086;50.966;3.144;2023-05-10T01:08:54;126.93;;;120.93;;
17921;SDS011;9086;50.966;3.144;2023-05-10T01:11:20;115.27;;;109.47;;
17921;SDS011;9086;50.966;3.144;2023-05-10T01:13:47;134.80;;;128.47;;
17921;SDS011;9086;50.966;3.144;2023-05-10T01:16:16;137.33;;;131.00;;
17921;SDS011;9086;50.966;3.144;2023-05-10T01:18:42;139.57;;;133.47;;
17921;SDS011;9086;50.966;3.144;2023-05-10T01:21:17;136.80;;;130.70;;
17921;SDS011;9086;50.966;3.144;2023-05-10T01:23:47;147.43;;;141.07;;
17921;SDS011;9086;50.966;3.144;2023-05-10T01:34:23;149.83;;;143.50;;
17921;SDS011;9086;50.966;3.144;2023-05-10T01:36:51;148.83;;;142.63;;
17921;SDS011;9086;50.966;3.144;2023-05-10T01:39:22;155.23;;;148.57;;
17921;SDS011;9086;50.966;3.144;2023-05-10T01:41:59;167.70;;;160.93;;
17921;SDS011;9086;50.966;3.144;2023-05-10T01:46:54;165.63;;;158.83;;
17921;SDS011;9086;50.966;3.144;2023-05-10T01:49:24;173.30;;;166.20;;
17921;SDS011;9086;50.966;3.144;2023-05-10T01:51:52;174.77;;;167.53;;
17921;SDS011;9086;50.966;3.144;2023-05-10T01:54:22;177.37;;;170.03;;
17921;SDS011;9086;50.966;3.144;2023-05-10T01:56:52;182.40;;;174.97;;
17921;SDS011;9086;50.966;3.144;2023-05-10T01:59:22;179.67;;;171.97;;
17921;SDS011;9086;50.966;3.144;2023-05-10T02:01:53;189.47;;;181.90;;
17921;SDS011;9086;50.966;3.144;2023-05-10T02:04:19;188.60;;;180.67;;
17921;SDS011;9086;50.966;3.144;2023-05-10T02:06:47;188.50;;;180.77;;
17921;SDS011;9086;50.966;3.144;2023-05-10T02:09:14;194.67;;;186.43;;
17921;SDS011;9086;50.966;3.144;2023-05-10T02:11:41;187.43;;;179.53;;
17921;SDS011;9086;50.966;3.144;2023-05-10T02:14:09;188.00;;;180.13;;
17921;SDS011;9086;50.966;3.144;2023-05-10T02:16:35;191.53;;;183.57;;
17921;SDS011;9086;50.966;3.144;2023-05-10T02:19:02;197.03;;;188.93;;
17921;SDS011;9086;50.966;3.144;2023-05-10T02:21:29;197.03;;;189.10;;
17921;SDS011;9086;50.966;3.144;2023-05-10T02:23:55;200.50;;;192.30;;
17921;SDS011;9086;50.966;3.144;2023-05-10T02:26:22;196.73;;;188.70;;
17921;SDS011;9086;50.966;3.144;2023-05-10T02:28:50;189.97;;;182.00;;
17921;SDS011;9086;50.966;3.144;2023-05-10T02:31:16;201.20;;;192.50;;
17921;SDS011;9086;50.966;3.144;2023-05-10T02:33:42;183.07;;;174.93;;
17921;SDS011;9086;50.966;3.144;2023-05-10T02:36:09;181.43;;;173.57;;
17921;SDS011;9086;50.966;3.144;2023-05-10T02:38:36;177.67;;;170.10;;
17921;SDS011;9086;50.966;3.144;2023-05-10T02:41:02;182.00;;;174.27;;
17921;SDS011;9086;50.966;3.144;2023-05-10T02:43:31;194.43;;;185.97;;
17921;SDS011;9086;50.966;3.144;2023-05-10T02:45:58;174.90;;;167.33;;
17921;SDS011;9086;50.966;3.144;2023-05-10T02:48:24;172.60;;;164.87;;
17921;SDS011;9086;50.966;3.144;2023-05-10T02:50:50;169.37;;;161.83;;
17921;SDS011;9086;50.966;3.144;2023-05-10T02:53:23;173.70;;;166.30;;
17921;SDS011;9086;50.966;3.144;2023-05-10T02:55:56;164.17;;;156.57;;
17921;SDS011;9086;50.966;3.144;2023-05-10T02:58:23;163.20;;;155.47;;
17921;SDS011;9086;50.966;3.144;2023-05-10T03:00:49;170.63;;;163.10;;
17921;SDS011;9086;50.966;3.144;2023-05-10T03:03:15;159.50;;;152.13;;
17921;SDS011;9086;50.966;3.144;2023-05-10T03:05:41;151.27;;;143.73;;
17921;SDS011;9086;50.966;3.144;2023-05-10T03:08:07;150.47;;;143.17;;
17921;SDS011;9086;50.966;3.144;2023-05-10T03:10:33;144.90;;;137.40;;
17921;SDS011;9086;50.966;3.144;2023-05-10T03:15:42;146.23;;;138.53;;
17921;SDS011;9086;50.966;3.144;2023-05-10T03:18:23;155.30;;;146.93;;
17921;SDS011;9086;50.966;3.144;2023-05-10T03:20:57;176.07;;;166.37;;
17921;SDS011;9086;50.966;3.144;2023-05-10T03:23:27;169.27;;;160.40;;
17921;SDS011;9086;50.966;3.144;2023-05-10T03:25:55;167.83;;;159.00;;
17921;SDS011;9086;50.966;3.144;2023-05-10T03:28:22;159.00;;;150.40;;
17921;SDS011;9086;50.966;3.144;2023-05-10T03:30:50;155.53;;;147.03;;
17921;SDS011;9086;50.966;3.144;2023-05-10T03:33:18;156.37;;;147.93;;
17921;SDS011;9086;50.966;3.144;2023-05-10T03:35:44;170.90;;;162.27;;
17921;SDS011;9086;50.966;3.144;2023-05-10T03:38:11;181.50;;;172.40;;
17921;SDS011;9086;50.966;3.144;2023-05-10T03:40:37;168.70;;;159.03;;
17921;SDS011;9086;50.966;3.144;2023-05-10T03:43:03;155.17;;;146.77;;
17921;SDS011;9086;50.966;3.144;2023-05-10T03:45:29;156.50;;;148.27;;
17921;SDS011;9086;50.966;3.144;2023-05-10T03:47:56;170.33;;;161.87;;
17921;SDS011;9086;50.966;3.144;2023-05-10T03:50:22;156.73;;;148.67;;
17921;SDS011;9086;50.966;3.144;2023-05-10T03:52:48;158.63;;;150.27;;
17921;SDS011;9086;50.966;3.144;2023-05-10T03:55:15;154.20;;;145.80;;
17921;SDS011;9086;50.966;3.144;2023-05-10T03:57:41;156.87;;;148.47;;
17921;SDS011;9086;50.966;3.144;2023-05-10T04:00:07;167.30;;;158.43;;
17921;SDS011;9086;50.966;3.144;2023-05-10T04:02:34;159.77;;;151.73;;
17921;SDS011;9086;50.966;3.144;2023-05-10T04:05:00;165.93;;;157.03;;
17921;SDS011;9086;50.966;3.144;2023-05-10T04:07:26;156.10;;;147.87;;
17921;SDS011;9086;50.966;3.144;2023-05-10T04:09:52;158.40;;;149.57;;
17921;SDS011;9086;50.966;3.144;2023-05-10T04:12:18;151.33;;;142.53;;
17921;SDS011;9086;50.966;3.144;2023-05-10T04:14:44;150.80;;;142.27;;
17921;SDS011;9086;50.966;3.144;2023-05-10T04:17:10;151.87;;;143.13;;
17921;SDS011;9086;50.966;3.144;2023-05-10T04:19:36;145.50;;;137.47;;
17921;SDS011;9086;50.966;3.144;2023-05-10T04:22:03;151.03;;;142.53;;
17921;SDS011;9086;50.966;3.144;2023-05-10T04:24:29;145.53;;;137.23;;
17921;SDS011;9086;50.966;3.144;2023-05-10T04:26:55;141.07;;;133.07;;
17921;SDS011;9086;50.966;3.144;2023-05-10T04:29:21;152.67;;;144.07;;
17921;SDS011;9086;50.966;3.144;2023-05-10T04:31:47;134.33;;;126.67;;
17921;SDS011;9086;50.966;3.144;2023-05-10T04:34:13;130.03;;;121.97;;
17921;SDS011;9086;50.966;3.144;2023-05-10T04:36:39;134.27;;;126.83;;
17921;SDS011;9086;50.966;3.144;2023-05-10T04:39:05;125.00;;;117.43;;
17921;SDS011;9086;50.966;3.144;2023-05-10T04:41:32;122.90;;;116.00;;
17921;SDS011;9086;50.966;3.144;2023-05-10T04:43:58;119.23;;;112.00;;
17921;SDS011;9086;50.966;3.144;2023-05-10T04:46:24;127.27;;;119.50;;
17921;SDS011;9086;50.966;3.144;2023-05-10T04:48:50;117.20;;;110.27;;
17921;SDS011;9086;50.966;3.144;2023-05-10T04:51:16;121.10;;;114.13;;
17921;SDS011;9086;50.966;3.144;2023-05-10T04:53:42;114.63;;;107.93;;
17921;SDS011;9086;50.966;3.144;2023-05-10T04:56:08;98.67;;;92.37;;
17921;SDS011;9086;50.966;3.144;2023-05-10T04:58:34;99.20;;;93.40;;
17921;SDS011;9086;50.966;3.144;2023-05-10T05:01:06;112.33;;;105.60;;
17921;SDS011;9086;50.966;3.144;2023-05-10T05:03:33;111.93;;;105.50;;
17921;SDS011;9086;50.966;3.144;2023-05-10T05:05:59;99.10;;;92.77;;
17921;SDS011;9086;50.966;3.144;2023-05-10T05:08:25;100.53;;;94.47;;
17921;SDS011;9086;50.966;3.144;2023-05-10T05:10:51;110.77;;;103.77;;
17921;SDS011;9086;50.966;3.144;2023-05-10T05:13:17;112.30;;;106.20;;
17921;SDS011;9086;50.966;3.144;2023-05-10T05:15:43;111.63;;;105.07;;
17921;SDS011;9086;50.966;3.144;2023-05-10T05:18:10;117.43;;;110.30;;
17921;SDS011;9086;50.966;3.144;2023-05-10T05:20:36;115.50;;;108.87;;
17921;SDS011;9086;50.966;3.144;2023-05-10T05:23:02;105.93;;;99.50;;
17921;SDS011;9086;50.966;3.144;2023-05-10T05:25:28;113.07;;;105.93;;
17921;SDS011;9086;50.966;3.144;2023-05-10T05:27:54;108.27;;;101.33;;
17921;SDS011;9086;50.966;3.144;2023-05-10T05:30:20;105.43;;;99.57;;
17921;SDS011;9086;50.966;3.144;2023-05-10T05:32:46;109.53;;;103.17;;
17921;SDS011;9086;50.966;3.144;2023-05-10T05:35:12;114.90;;;108.27;;
17921;SDS011;9086;50.966;3.144;2023-05-10T05:37:38;113.63;;;107.07;;
17921;SDS011;9086;50.966;3.144;2023-05-10T05:40:05;118.23;;;111.83;;
17921;SDS011;9086;50.966;3.144;2023-05-10T05:42:31;113.87;;;107.70;;
17921;SDS011;9086;50.966;3.144;2023-05-10T05:44:57;116.83;;;110.73;;
17921;SDS011;9086;50.966;3.144;2023-05-10T05:47:24;124.67;;;117.97;;
17921;SDS011;9086;50.966;3.144;2023-05-10T05:49:50;114.17;;;108.00;;
17921;SDS011;9086;50.966;3.144;2023-05-10T05:52:16;119.60;;;113.30;;
17921;SDS011;9086;50.966;3.144;2023-05-10T05:54:42;127.20;;;120.77;;
17921;SDS011;9086;50.966;3.144;2023-05-10T05:57:08;120.37;;;113.93;;
17921;SDS011;9086;50.966;3.144;2023-05-10T05:59:34;113.50;;;107.37;;
17921;SDS011;9086;50.966;3.144;2023-05-10T06:02:01;120.80;;;114.47;;
17921;SDS011;9086;50.966;3.144;2023-05-10T06:04:27;126.30;;;119.47;;
17921;SDS011;9086;50.966;3.144;2023-05-10T06:06:53;114.27;;;108.13;;
17921;SDS011;9086;50.966;3.144;2023-05-10T06:09:19;101.00;;;95.47;;
17921;SDS011;9086;50.966;3.144;2023-05-10T06:11:45;85.57;;;80.40;;
17921;SDS011;9086;50.966;3.144;2023-05-10T06:14:11;80.33;;;75.33;;
17921;SDS011;9086;50.966;3.144;2023-05-10T06:16:37;77.67;;;72.63;;
17921;SDS011;9086;50.966;3.144;2023-05-10T06:19:03;77.90;;;72.97;;
17921;SDS011;9086;50.966;3.144;2023-05-10T06:21:29;73.17;;;68.37;;
17921;SDS011;9086;50.966;3.144;2023-05-10T06:23:56;71.57;;;66.83;;
17921;SDS011;9086;50.966;3.144;2023-05-10T06:26:22;64.27;;;59.93;;
17921;SDS011;9086;50.966;3.144;2023-05-10T06:28:48;54.77;;;50.83;;
17921;SDS011;9086;50.966;3.144;2023-05-10T06:31:14;58.07;;;53.77;;
17921;SDS011;9086;50.966;3.144;2023-05-10T06:33:40;53.20;;;48.90;;
17921;SDS011;9086;50.966;3.144;2023-05-10T06:36:07;49.90;;;45.83;;
17921;SDS011;9086;50.966;3.144;2023-05-10T06:38:33;45.67;;;41.70;;
17921;SDS011;9086;50.966;3.144;2023-05-10T06:40:59;35.93;;;32.83;;
17921;SDS011;9086;50.966;3.144;2023-05-10T06:43:25;34.00;;;31.20;;
17921;SDS011;9086;50.966;3.144;2023-05-10T06:45:53;35.07;;;31.77;;
17921;SDS011;9086;50.966;3.144;2023-05-10T06:48:19;33.93;;;30.43;;
17921;SDS011;9086;50.966;3.144;2023-05-10T06:50:45;32.30;;;28.83;;
17921;SDS011;9086;50.966;3.144;2023-05-10T06:53:11;30.83;;;27.73;;
17921;SDS011;9086;50.966;3.144;2023-05-10T06:55:38;29.37;;;26.37;;
17921;SDS011;9086;50.966;3.144;2023-05-10T06:58:04;29.90;;;26.73;;
17921;SDS011;9086;50.966;3.144;2023-05-10T07:00:31;28.27;;;25.40;;
17921;SDS011;9086;50.966;3.144;2023-05-10T07:02:57;29.17;;;26.27;;
17921;SDS011;9086;50.966;3.144;2023-05-10T07:05:23;29.83;;;26.83;;
17921;SDS011;9086;50.966;3.144;2023-05-10T07:07:49;27.57;;;24.73;;
17921;SDS011;9086;50.966;3.144;2023-05-10T07:10:16;30.10;;;25.47;;
17921;SDS011;9086;50.966;3.144;2023-05-10T07:12:42;28.20;;;25.27;;
17921;SDS011;9086;50.966;3.144;2023-05-10T07:15:08;28.30;;;25.30;;
17921;SDS011;9086;50.966;3.144;2023-05-10T07:17:35;26.10;;;23.17;;
17921;SDS011;9086;50.966;3.144;2023-05-10T07:20:01;27.53;;;24.63;;
17921;SDS011;9086;50.966;3.144;2023-05-10T07:22:28;27.73;;;23.63;;
17921;SDS011;9086;50.966;3.144;2023-05-10T07:24:54;28.63;;;24.33;;
17921;SDS011;9086;50.966;3.144;2023-05-10T07:27:20;26.27;;;23.53;;
17921;SDS011;9086;50.966;3.144;2023-05-10T07:29:47;29.80;;;25.10;;
17921;SDS011;9086;50.966;3.144;2023-05-10T07:32:13;27.07;;;23.40;;
17921;SDS011;9086;50.966;3.144;2023-05-10T07:34:39;21.20;;;19.00;;
17921;SDS011;9086;50.966;3.144;2023-05-10T07:37:05;20.87;;;18.67;;
17921;SDS011;9086;50.966;3.144;2023-05-10T07:39:32;22.33;;;20.07;;
17921;SDS011;9086;50.966;3.144;2023-05-10T07:41:58;20.03;;;18.17;;
17921;SDS011;9086;50.966;3.144;2023-05-10T07:44:24;21.80;;;18.17;;
17921;SDS011;9086;50.966;3.144;2023-05-10T07:46:50;20.30;;;18.20;;
17921;SDS011;9086;50.966;3.144;2023-05-10T07:49:17;19.67;;;17.67;;
17921;SDS011;9086;50.966;3.144;2023-05-10T07:51:43;18.23;;;16.27;;
17921;SDS011;9086;50.966;3.144;2023-05-10T07:54:09;17.00;;;15.10;;
17921;SDS011;9086;50.966;3.144;2023-05-10T07:56:35;16.93;;;15.30;;
17921;SDS011;9086;50.966;3.144;2023-05-10T07:59:02;17.87;;;16.27;;
17921;SDS011;9086;50.966;3.144;2023-05-10T08:01:30;19.50;;;17.33;;
17921;SDS011;9086;50.966;3.144;2023-05-10T08:04:00;19.53;;;16.50;;
17921;SDS011;9086;50.966;3.144;2023-05-10T08:06:26;18.10;;;16.30;;
17921;SDS011;9086;50.966;3.144;2023-05-10T08:08:54;19.03;;;17.03;;
17921;SDS011;9086;50.966;3.144;2023-05-10T08:11:20;20.37;;;18.27;;
17921;SDS011;9086;50.966;3.144;2023-05-10T08:13:47;19.90;;;17.90;;
17921;SDS011;9086;50.966;3.144;2023-05-10T08:16:14;22.60;;;17.93;;
17921;SDS011;9086;50.966;3.144;2023-05-10T08:18:40;19.87;;;17.87;;
17921;SDS011;9086;50.966;3.144;2023-05-10T08:21:06;17.50;;;15.60;;
17921;SDS011;9086;50.966;3.144;2023-05-10T08:23:33;16.57;;;14.97;;
17921;SDS011;9086;50.966;3.144;2023-05-10T08:25:59;15.87;;;14.37;;
17921;SDS011;9086;50.966;3.144;2023-05-10T08:28:25;16.03;;;14.47;;
17921;SDS011;9086;50.966;3.144;2023-05-10T08:30:52;13.70;;;12.40;;
17921;SDS011;9086;50.966;3.144;2023-05-10T08:33:18;16.83;;;15.13;;
17921;SDS011;9086;50.966;3.144;2023-05-10T08:35:44;16.63;;;15.10;;
17921;SDS011;9086;50.966;3.144;2023-05-10T08:38:10;16.63;;;14.90;;
17921;SDS011;9086;50.966;3.144;2023-05-10T08:40:37;17.53;;;15.73;;
17921;SDS011;9086;50.966;3.144;2023-05-10T08:43:07;17.37;;;15.50;;
17921;SDS011;9086;50.966;3.144;2023-05-10T08:45:36;18.27;;;16.47;;
17921;SDS011;9086;50.966;3.144;2023-05-10T08:48:03;18.60;;;15.97;;
17921;SDS011;9086;50.966;3.144;2023-05-10T08:50:30;18.97;;;16.03;;
17921;SDS011;9086;50.966;3.144;2023-05-10T08:53:00;17.37;;;15.33;;
17921;SDS011;9086;50.966;3.144;2023-05-10T08:55:28;21.20;;;16.77;;
17921;SDS011;9086;50.966;3.144;2023-05-10T08:57:55;19.30;;;17.43;;
17921;SDS011;9086;50.966;3.144;2023-05-10T09:00:21;20.97;;;18.83;;
17921;SDS011;9086;50.966;3.144;2023-05-10T09:02:49;22.33;;;18.60;;
17921;SDS011;9086;50.966;3.144;2023-05-10T09:05:15;22.27;;;19.97;;
17921;SDS011;9086;50.966;3.144;2023-05-10T09:07:42;20.93;;;18.97;;
17921;SDS011;9086;50.966;3.144;2023-05-10T09:10:08;22.23;;;20.03;;
17921;SDS011;9086;50.966;3.144;2023-05-10T09:12:35;22.27;;;20.07;;
17921;SDS011;9086;50.966;3.144;2023-05-10T09:15:01;21.73;;;19.40;;
17921;SDS011;9086;50.966;3.144;2023-05-10T09:17:27;23.67;;;18.43;;
17921;SDS011;9086;50.966;3.144;2023-05-10T09:20:01;21.20;;;18.47;;
17921;SDS011;9086;50.966;3.144;2023-05-10T09:22:29;23.07;;;18.47;;
17921;SDS011;9086;50.966;3.144;2023-05-10T09:25:05;20.23;;;16.70;;
17921;SDS011;9086;50.966;3.144;2023-05-10T09:27:32;20.67;;;17.27;;
17921;SDS011;9086;50.966;3.144;2023-05-10T09:29:58;22.97;;;16.10;;
17921;SDS011;9086;50.966;3.144;2023-05-10T09:35:06;22.90;;;16.17;;
17921;SDS011;9086;50.966;3.144;2023-05-10T09:37:32;21.73;;;16.27;;
17921;SDS011;9086;50.966;3.144;2023-05-10T09:39:58;22.00;;;15.13;;
17921;SDS011;9086;50.966;3.144;2023-05-10T09:42:24;22.40;;;16.37;;
17921;SDS011;9086;50.966;3.144;2023-05-10T09:44:50;22.30;;;17.33;;
17921;SDS011;9086;50.966;3.144;2023-05-10T09:47:17;23.00;;;17.23;;
17921;SDS011;9086;50.966;3.144;2023-05-10T09:49:49;21.50;;;17.60;;
17921;SDS011;9086;50.966;3.144;2023-05-10T09:52:16;22.77;;;17.73;;
17921;SDS011;9086;50.966;3.144;2023-05-10T09:54:45;23.67;;;17.53;;
17921;SDS011;9086;50.966;3.144;2023-05-10T09:57:21;21.73;;;16.90;;
17921;SDS011;9086;50.966;3.144;2023-05-10T09:59:47;18.00;;;16.10;;
17921;SDS011;9086;50.966;3.144;2023-05-10T10:02:14;20.47;;;16.20;;
17921;SDS011;9086;50.966;3.144;2023-05-10T10:04:41;20.70;;;14.60;;
17921;SDS011;9086;50.966;3.144;2023-05-10T10:07:07;23.10;;;13.87;;
17921;SDS011;9086;50.966;3.144;2023-05-10T10:09:33;17.27;;;13.70;;
17921;SDS011;9086;50.966;3.144;2023-05-10T10:12:00;15.23;;;12.37;;
17921;SDS011;9086;50.966;3.144;2023-05-10T10:14:27;15.57;;;13.20;;
17921;SDS011;9086;50.966;3.144;2023-05-10T10:16:53;16.23;;;12.53;;
17921;SDS011;9086;50.966;3.144;2023-05-10T10:19:19;15.27;;;11.70;;
17921;SDS011;9086;50.966;3.144;2023-05-10T10:21:46;17.33;;;11.70;;
17921;SDS011;9086;50.966;3.144;2023-05-10T10:24:12;13.03;;;10.83;;
17921;SDS011;9086;50.966;3.144;2023-05-10T10:26:38;16.23;;;11.70;;
17921;SDS011;9086;50.966;3.144;2023-05-10T10:29:23;13.30;;;10.10;;
17921;SDS011;9086;50.966;3.144;2023-05-10T10:36:47;13.63;;;10.13;;
17921;SDS011;9086;50.966;3.144;2023-05-10T10:39:13;15.13;;;10.37;;
17921;SDS011;9086;50.966;3.144;2023-05-10T10:41:40;13.17;;;10.50;;
17921;SDS011;9086;50.966;3.144;2023-05-10T10:44:24;13.63;;;9.67;;
17921;SDS011;9086;50.966;3.144;2023-05-10T10:49:26;13.80;;;9.17;;
17921;SDS011;9086;50.966;3.144;2023-05-10T10:54:37;12.27;;;8.52;;
17921;SDS011;9086;50.966;3.144;2023-05-10T10:57:10;10.83;;;8.60;;
17921;SDS011;9086;50.966;3.144;2023-05-10T10:59:41;9.77;;;7.95;;
17921;SDS011;9086;50.966;3.144;2023-05-10T11:02:08;11.88;;;8.32;;
17921;SDS011;9086;50.966;3.144;2023-05-10T11:04:43;11.57;;;7.95;;
17921;SDS011;9086;50.966;3.144;2023-05-10T11:07:18;14.30;;;7.80;;
17921;SDS011;9086;50.966;3.144;2023-05-10T11:09:45;10.23;;;8.23;;
17921;SDS011;9086;50.966;3.144;2023-05-10T11:12:12;13.15;;;7.47;;
17921;SDS011;9086;50.966;3.144;2023-05-10T11:14:39;9.88;;;7.30;;
17921;SDS011;9086;50.966;3.144;2023-05-10T11:17:24;12.97;;;7.50;;
17921;SDS011;9086;50.966;3.144;2023-05-10T11:22:53;11.18;;;9.38;;
17921;SDS011;9086;50.966;3.144;2023-05-10T11:25:23;10.48;;;8.00;;
17921;SDS011;9086;50.966;3.144;2023-05-10T11:27:51;10.70;;;7.65;;
17921;SDS011;9086;50.966;3.144;2023-05-10T11:30:18;14.48;;;9.23;;
17921;SDS011;9086;50.966;3.144;2023-05-10T11:32:45;14.52;;;8.13;;
17921;SDS011;9086;50.966;3.144;2023-05-10T11:35:11;9.87;;;7.07;;
17921;SDS011;9086;50.966;3.144;2023-05-10T11:37:40;9.32;;;6.38;;
17921;SDS011;9086;50.966;3.144;2023-05-10T11:40:08;10.53;;;6.53;;
17921;SDS011;9086;50.966;3.144;2023-05-10T11:42:38;11.75;;;6.68;;
17921;SDS011;9086;50.966;3.144;2023-05-10T11:45:04;8.25;;;5.03;;
17921;SDS011;9086;50.966;3.144;2023-05-10T11:47:30;9.63;;;4.72;;
17921;SDS011;9086;50.966;3.144;2023-05-10T11:49:57;11.93;;;4.75;;
17921;SDS011;9086;50.966;3.144;2023-05-10T11:52:23;12.45;;;5.80;;
17921;SDS011;9086;50.966;3.144;2023-05-10T11:54:53;9.85;;;5.95;;
17921;SDS011;9086;50.966;3.144;2023-05-10T11:57:20;13.43;;;6.45;;
17921;SDS011;9086;50.966;3.144;2023-05-10T11:59:47;12.55;;;6.93;;
17921;SDS011;9086;50.966;3.144;2023-05-10T12:02:13;8.65;;;5.57;;
17921;SDS011;9086;50.966;3.144;2023-05-10T12:04:40;8.38;;;5.43;;
17921;SDS011;9086;50.966;3.144;2023-05-10T12:07:06;9.35;;;5.00;;
17921;SDS011;9086;50.966;3.144;2023-05-10T12:09:32;8.32;;;4.97;;
17921;SDS011;9086;50.966;3.144;2023-05-10T12:11:58;10.10;;;5.47;;
17921;SDS011;9086;50.966;3.144;2023-05-10T12:14:25;9.48;;;5.25;;
17921;SDS011;9086;50.966;3.144;2023-05-10T12:16:51;6.93;;;4.38;;
17921;SDS011;9086;50.966;3.144;2023-05-10T12:19:18;8.48;;;4.07;;
17921;SDS011;9086;50.966;3.144;2023-05-10T12:21:48;6.07;;;3.03;;
17921;SDS011;9086;50.966;3.144;2023-05-10T12:24:14;9.15;;;4.10;;
17921;SDS011;9086;50.966;3.144;2023-05-10T12:26:45;9.63;;;3.17;;
17921;SDS011;9086;50.966;3.144;2023-05-10T12:29:14;9.75;;;3.78;;
17921;SDS011;9086;50.966;3.144;2023-05-10T12:31:51;10.35;;;4.30;;
17921;SDS011;9086;50.966;3.144;2023-05-10T12:36:51;7.25;;;3.10;;
17921;SDS011;9086;50.966;3.144;2023-05-10T12:39:17;6.10;;;3.88;;
17921;SDS011;9086;50.966;3.144;2023-05-10T12:41:43;7.85;;;3.75;;
17921;SDS011;9086;50.966;3.144;2023-05-10T12:44:09;6.80;;;3.40;;
17921;SDS011;9086;50.966;3.144;2023-05-10T12:46:36;9.88;;;3.58;;
17921;SDS011;9086;50.966;3.144;2023-05-10T12:49:02;6.70;;;3.70;;
17921;SDS011;9086;50.966;3.144;2023-05-10T12:51:28;6.55;;;3.70;;
17921;SDS011;9086;50.966;3.144;2023-05-10T12:53:54;9.88;;;3.90;;
17921;SDS011;9086;50.966;3.144;2023-05-10T12:56:20;7.70;;;3.97;;
17921;SDS011;9086;50.966;3.144;2023-05-10T12:58:46;7.25;;;3.50;;
17921;SDS011;9086;50.966;3.144;2023-05-10T13:01:13;5.47;;;2.92;;
17921;SDS011;9086;50.966;3.144;2023-05-10T13:03:39;6.88;;;3.67;;
17921;SDS011;9086;50.966;3.144;2023-05-10T13:06:05;6.45;;;2.97;;
17921;SDS011;9086;50.966;3.144;2023-05-10T13:08:32;8.35;;;2.92;;
17921;SDS011;9086;50.966;3.144;2023-05-10T13:10:58;8.43;;;2.97;;
17921;SDS011;9086;50.966;3.144;2023-05-10T13:13:24;7.30;;;3.20;;
17921;SDS011;9086;50.966;3.144;2023-05-10T13:15:51;6.35;;;3.28;;
17921;SDS011;9086;50.966;3.144;2023-05-10T13:18:17;7.78;;;2.97;;
17921;SDS011;9086;50.966;3.144;2023-05-10T13:20:43;8.10;;;2.95;;
17921;SDS011;9086;50.966;3.144;2023-05-10T13:23:09;6.80;;;2.38;;
17921;SDS011;9086;50.966;3.144;2023-05-10T13:25:35;6.97;;;3.50;;
17921;SDS011;9086;50.966;3.144;2023-05-10T13:28:02;3.92;;;2.55;;
17921;SDS011;9086;50.966;3.144;2023-05-10T13:30:28;7.10;;;2.85;;
17921;SDS011;9086;50.966;3.144;2023-05-10T13:32:54;7.75;;;3.03;;
17921;SDS011;9086;50.966;3.144;2023-05-10T13:35:20;6.10;;;3.35;;
17921;SDS011;9086;50.966;3.144;2023-05-10T13:37:46;7.80;;;3.10;;
17921;SDS011;9086;50.966;3.144;2023-05-10T13:40:12;7.55;;;3.30;;
17921;SDS011;9086;50.966;3.144;2023-05-10T13:42:40;6.53;;;3.45;;
17921;SDS011;9086;50.966;3.144;2023-05-10T13:45:06;6.15;;;3.13;;
17921;SDS011;9086;50.966;3.144;2023-05-10T13:47:32;7.90;;;3.28;;
17921;SDS011;9086;50.966;3.144;2023-05-10T13:49:58;11.90;;;4.00;;
17921;SDS011;9086;50.966;3.144;2023-05-10T13:52:25;9.45;;;3.70;;
17921;SDS011;9086;50.966;3.144;2023-05-10T13:54:52;7.10;;;3.55;;
17921;SDS011;9086;50.966;3.144;2023-05-10T13:57:20;8.67;;;4.30;;
17921;SDS011;9086;50.966;3.144;2023-05-10T14:12:51;9.00;;;4.10;;
17921;SDS011;9086;50.966;3.144;2023-05-10T14:15:17;8.07;;;4.00;;
17921;SDS011;9086;50.966;3.144;2023-05-10T14:17:43;7.32;;;3.28;;
17921;SDS011;9086;50.966;3.144;2023-05-10T14:20:09;10.07;;;3.63;;
17921;SDS011;9086;50.966;3.144;2023-05-10T14:22:35;10.53;;;3.70;;
17921;SDS011;9086;50.966;3.144;2023-05-10T14:25:01;6.43;;;3.40;;
17921;SDS011;9086;50.966;3.144;2023-05-10T14:27:28;5.93;;;2.90;;
17921;SDS011;9086;50.966;3.144;2023-05-10T14:29:54;5.43;;;2.95;;
17921;SDS011;9086;50.966;3.144;2023-05-10T14:32:20;6.72;;;3.00;;
17921;SDS011;9086;50.966;3.144;2023-05-10T14:34:46;6.88;;;2.70;;
17921;SDS011;9086;50.966;3.144;2023-05-10T14:37:12;7.18;;;2.90;;
17921;SDS011;9086;50.966;3.144;2023-05-10T14:39:39;6.05;;;2.90;;
17921;SDS011;9086;50.966;3.144;2023-05-10T14:42:06;6.35;;;2.58;;
17921;SDS011;9086;50.966;3.144;2023-05-10T14:44:32;6.22;;;1.90;;
17921;SDS011;9086;50.966;3.144;2023-05-10T14:46:58;5.30;;;2.58;;
17921;SDS011;9086;50.966;3.144;2023-05-10T14:49:24;5.20;;;2.50;;
17921;SDS011;9086;50.966;3.144;2023-05-10T14:51:51;8.38;;;2.80;;
17921;SDS011;9086;50.966;3.144;2023-05-10T14:54:17;5.88;;;2.65;;
17921;SDS011;9086;50.966;3.144;2023-05-10T14:56:43;6.05;;;1.98;;
17921;SDS011;9086;50.966;3.144;2023-05-10T14:59:09;6.28;;;2.22;;
17921;SDS011;9086;50.966;3.144;2023-05-10T15:01:35;5.60;;;2.40;;
17921;SDS011;9086;50.966;3.144;2023-05-10T15:04:05;7.65;;;2.88;;
17921;SDS011;9086;50.966;3.144;2023-05-10T15:06:32;5.70;;;2.47;;
17921;SDS011;9086;50.966;3.144;2023-05-10T15:08:58;7.35;;;2.88;;
17921;SDS011;9086;50.966;3.144;2023-05-10T15:11:24;5.78;;;2.92;;
17921;SDS011;9086;50.966;3.144;2023-05-10T15:13:50;4.85;;;2.28;;